^^
Meteo Knjazevac Station Historical Data
Daily Summary for April 5, 2021 Units:  English    Metric   Both
Daily Weekly Monthly Yearly Custom
  High: Low: Average:
Temperature: 73 °F 36.7 °F 54.8 °F
Dew Point: 53.4 °F 34 °F 44.9 °F
Humidity: 96% 49% 72%
Wind Speed: 8mph 0mph 2.1mph
Wind Gust: 15mph - -
Wind- - SSE
Pressure: 30.28 in 30.18 in -
Precipitation: 0.00 in    
Historical Graphs
 
 
Tabular Data for April 5, 2021
Time Temperature Dew Point Pressure Wind Wind Speed Wind Gust Humidity Rainfall Rate (Hourly) solar Conditions
00:00 47.5 °F 42.6 °F 30.26 in Calm   1 mph 83% 0.00 in 0 W/m2
00:10 46.8 °F 40.9 °F 30.26 in Calm     80% 0.00 in 0 W/m2
00:20 46.4 °F 40.9 °F 30.26 in Calm   1 mph 81% 0.00 in 0 W/m2
00:30 45.9 °F 40.4 °F 30.26 in Calm   2 mph 81% 0.00 in 0 W/m2
00:40 45.5 °F 40.9 °F 30.26 in Calm   2 mph 84% 0.00 in 0 W/m2
00:50 45.1 °F 40.6 °F 30.26 in Calm   1 mph 84% 0.00 in 0 W/m2
01:00 45 °F 40.7 °F 30.26 in Calm   3 mph 85% 0.00 in 0 W/m2
01:10 44.6 °F 40.4 °F 30.26 in Calm     85% 0.00 in 0 W/m2
01:20 44.2 °F 39.7 °F 30.26 in Calm   1 mph 84% 0.00 in 0 W/m2
01:30 43.9 °F 39.4 °F 30.26 in Calm   2 mph 84% 0.00 in 0 W/m2
01:40 43.4 °F 38.9 °F 30.26 in NW 1 mph 2 mph 84% 0.00 in 0 W/m2
01:50 43.3 °F 39.4 °F 30.26 in Calm   1 mph 86% 0.00 in 0 W/m2
02:00 43 °F 38.8 °F 30.26 in Calm   1 mph 85% 0.00 in 0 W/m2
02:10 42.8 °F 38.6 °F 30.26 in Calm   2 mph 85% 0.00 in 0 W/m2
02:20 42.3 °F 38.1 °F 30.26 in Calm   2 mph 85% 0.00 in 0 W/m2
02:30 42.1 °F 37.9 °F 30.26 in Calm   2 mph 85% 0.00 in 0 W/m2
02:40 41.7 °F 37.5 °F 30.26 in Calm   1 mph 85% 0.00 in 0 W/m2
02:50 41.4 °F 37.2 °F 30.26 in Calm   1 mph 85% 0.00 in 0 W/m2
03:00 41.2 °F 37.9 °F 30.26 in WNW 2 mph 5 mph 88% 0.00 in 0 W/m2
03:10 41.2 °F 38.5 °F 30.26 in Calm   3 mph 90% 0.00 in 0 W/m2
03:20 41 °F 38 °F 30.26 in Calm     89% 0.00 in 0 W/m2
03:30 40.6 °F 37.4 °F 30.26 in NW 2 mph 2 mph 88% 0.00 in 0 W/m2
03:40 40.5 °F 37.2 °F 30.26 in Calm   2 mph 88% 0.00 in 0 W/m2
03:50 40.3 °F 37 °F 30.26 in Calm   2 mph 88% 0.00 in 0 W/m2
04:00 40.1 °F 36.8 °F 30.26 in Calm   1 mph 88% 0.00 in 0 W/m2
04:10 39.7 °F 36.5 °F 30.26 in Calm   1 mph 88% 0.00 in 0 W/m2
04:20 39.4 °F 36.1 °F 30.26 in Calm   1 mph 88% 0.00 in 0 W/m2
04:30 39.2 °F 35.9 °F 30.26 in NW 1 mph 2 mph 88% 0.00 in 0 W/m2
04:40 39 °F 36.3 °F 30.26 in WNW 1 mph 3 mph 90% 0.00 in 0 W/m2
04:50 39 °F 36.3 °F 30.26 in Calm   2 mph 90% 0.00 in 0 W/m2
05:00 38.9 °F 36.2 °F 30.26 in Calm   1 mph 90% 0.00 in 0 W/m2
05:10 38.7 °F 35.7 °F 30.26 in Calm   1 mph 89% 0.00 in 0 W/m2
05:20 38.5 °F 35.5 °F 30.27 in Calm   2 mph 89% 0.00 in 0 W/m2
05:30 38.3 °F 35.6 °F 30.27 in Calm   2 mph 90% 0.00 in 0 W/m2
05:40 38.1 °F 35.4 °F 30.27 in Calm   1 mph 90% 0.00 in 0 W/m2
05:50 37.8 °F 34.8 °F 30.27 in Calm   2 mph 89% 0.00 in 0 W/m2
06:00 37.6 °F 34.9 °F 30.27 in Calm   2 mph 90% 0.00 in 0 W/m2
06:10 37.6 °F 34.9 °F 30.27 in Calm   2 mph 90% 0.00 in 0 W/m2
06:20 37.6 °F 35.2 °F 30.27 in Calm     91% 0.00 in 0 W/m2
06:30 37.6 °F 35.7 °F 30.27 in Calm     93% 0.00 in 0 W/m2
06:40 37.4 °F 35 °F 30.28 in Calm   2 mph 91% 0.00 in 7 W/m2
06:50 37.2 °F 34.6 °F 30.28 in WNW 1 mph 2 mph 90% 0.00 in 17 W/m2
07:00 36.9 °F 34.2 °F 30.28 in Calm   2 mph 90% 0.00 in 26 W/m2
07:10 36.9 °F 34.2 °F 30.28 in Calm   1 mph 90% 0.00 in 37 W/m2
07:20 36.7 °F 34 °F 30.28 in Calm   2 mph 90% 0.00 in 65 W/m2
07:30 36.9 °F 34.5 °F 30.28 in Calm   2 mph 91% 0.00 in 89 W/m2
07:40 37 °F 34.6 °F 30.28 in Calm   2 mph 91% 0.00 in 113 W/m2
07:50 37.2 °F 35.4 °F 30.28 in NW 2 mph 4 mph 93% 0.00 in 137 W/m2
08:00 37.9 °F 36.6 °F 30.28 in WNW 2 mph 4 mph 95% 0.00 in 170 W/m2
08:10 38.5 °F 37.2 °F 30.28 in WNW 1 mph 3 mph 95% 0.00 in 125 W/m2
08:20 39.2 °F 38.2 °F 30.28 in West 1 mph 2 mph 96% 0.00 in 147 W/m2
08:30 40.6 °F 39.6 °F 30.28 in Calm   2 mph 96% 0.00 in 252 W/m2
08:40 42.6 °F 41.6 °F 30.28 in NW 1 mph 2 mph 96% 0.00 in 285 W/m2
08:50 44.8 °F 43.2 °F 30.28 in SW 1 mph 2 mph 94% 0.00 in 315 W/m2
09:00 46.4 °F 43.9 °F 30.28 in SW 1 mph 3 mph 91% 0.00 in 344 W/m2
09:10 47.8 °F 44.8 °F 30.28 in South 1 mph 3 mph 89% 0.00 in 374 W/m2
09:20 49.6 °F 45.6 °F 30.28 in North 3 mph 6 mph 86% 0.00 in 408 W/m2
09:30 51.1 °F 46.4 °F 30.28 in NNE 3 mph 8 mph 84% 0.00 in 435 W/m2
09:40 52.3 °F 46.7 °F 30.28 in North 2 mph 7 mph 81% 0.00 in 463 W/m2
09:50 53.4 °F 47.4 °F 30.28 in North 2 mph 8 mph 80% 0.00 in 171 W/m2
10:00 54.7 °F 48 °F 30.28 in North 2 mph 12 mph 78% 0.00 in 160 W/m2
10:10 55.8 °F 48.7 °F 30.28 in NNE 5 mph 12 mph 77% 0.00 in 527 W/m2
10:20 56.7 °F 48.5 °F 30.28 in NNE 7 mph 10 mph 74% 0.00 in 545 W/m2
10:30 57.7 °F 49.1 °F 30.28 in NNE 3 mph 10 mph 73% 0.00 in 562 W/m2
10:40 58.8 °F 49.8 °F 30.28 in North 1 mph 9 mph 72% 0.00 in 578 W/m2
10:50 59.9 °F 49.7 °F 30.28 in NE 7 mph 13 mph 69% 0.00 in 593 W/m2
11:00 61 °F 50.3 °F 30.28 in NNE 5 mph 12 mph 68% 0.00 in 605 W/m2
11:10 62.1 °F 51 °F 30.27 in NNE 6 mph 12 mph 67% 0.00 in 617 W/m2
11:20 63.1 °F 51.2 °F 30.27 in North 2 mph 9 mph 65% 0.00 in 627 W/m2
11:30 64.2 °F 51.4 °F 30.26 in North 5 mph 14 mph 63% 0.00 in 635 W/m2
11:40 65.5 °F 52.1 °F 30.26 in North 6 mph 12 mph 62% 0.00 in 642 W/m2
11:50 66.2 °F 51.9 °F 30.26 in North 5 mph 9 mph 60% 0.00 in 575 W/m2
12:00 67.1 °F 51.8 °F 30.26 in NNW 2 mph 11 mph 58% 0.00 in 184 W/m2
12:10 68 °F 52.7 °F 30.26 in NNW 2 mph 8 mph 58% 0.00 in 315 W/m2
12:20 68.7 °F 51.9 °F 30.25 in North 8 mph 14 mph 55% 0.00 in 653 W/m2
12:30 69.4 °F 52.6 °F 30.25 in North 3 mph 12 mph 55% 0.00 in 651 W/m2
12:40 70 °F 52.6 °F 30.25 in North 7 mph 13 mph 54% 0.00 in 648 W/m2
12:50 70.7 °F 53.2 °F 30.24 in North 3 mph 13 mph 54% 0.00 in 644 W/m2
13:00 71.4 °F 53.4 °F 30.24 in North 7 mph 13 mph 53% 0.00 in 637 W/m2
13:10 71.8 °F 53.2 °F 30.23 in North 5 mph 14 mph 52% 0.00 in 630 W/m2
13:20 72 °F 53.4 °F 30.23 in North 7 mph 14 mph 52% 0.00 in 620 W/m2
13:30 72 °F 53.4 °F 30.23 in North 5 mph 15 mph 52% 0.00 in 609 W/m2
13:40 72.1 °F 52.5 °F 30.22 in North 6 mph 15 mph 50% 0.00 in 597 W/m2
13:50 72.3 °F 52.6 °F 30.21 in North 5 mph 13 mph 50% 0.00 in 583 W/m2
14:00 72.5 °F 52.8 °F 30.21 in North 3 mph 14 mph 50% 0.00 in 568 W/m2
14:10 72.7 °F 53 °F 30.20 in North 7 mph 14 mph 50% 0.00 in 551 W/m2
14:20 72.7 °F 53 °F 30.20 in North 3 mph 13 mph 50% 0.00 in 533 W/m2
14:30 72.9 °F 53.1 °F 30.19 in North 6 mph 12 mph 50% 0.00 in 514 W/m2
14:40 73 °F 53.3 °F 30.19 in North 6 mph 12 mph 50% 0.00 in 493 W/m2
14:50 73 °F 52.7 °F 30.19 in North 3 mph 14 mph 49% 0.00 in 471 W/m2
15:00 73 °F 52.7 °F 30.19 in North 6 mph 13 mph 49% 0.00 in 448 W/m2
15:10 73 °F 52.7 °F 30.19 in North 8 mph 13 mph 49% 0.00 in 425 W/m2
15:20 73 °F 52.7 °F 30.19 in North 8 mph 13 mph 49% 0.00 in 400 W/m2
15:30 72.7 °F 52.4 °F 30.18 in North 5 mph 13 mph 49% 0.00 in 374 W/m2
15:40 72.7 °F 52.4 °F 30.19 in North 5 mph 12 mph 49% 0.00 in 348 W/m2
15:50 72.5 °F 52.2 °F 30.19 in North 2 mph 8 mph 49% 0.00 in 321 W/m2
16:00 72.5 °F 52.2 °F 30.19 in North 2 mph 9 mph 49% 0.00 in 293 W/m2
16:10 72.3 °F 52.1 °F 30.19 in NW 2 mph 8 mph 49% 0.00 in 265 W/m2
16:20 72 °F 51.8 °F 30.18 in NNE 3 mph 10 mph 49% 0.00 in 237 W/m2
16:30 71.8 °F 52.1 °F 30.19 in NE 3 mph 10 mph 50% 0.00 in 206 W/m2
16:40 71.4 °F 51.8 °F 30.19 in North 1 mph 8 mph 50% 0.00 in 178 W/m2
16:50 71.1 °F 52.5 °F 30.19 in WNW 1 mph 7 mph 52% 0.00 in 146 W/m2
17:00 70.5 °F 52 °F 30.19 in North 3 mph 8 mph 52% 0.00 in 118 W/m2
17:10 70 °F 51.5 °F 30.19 in WNW 2 mph 7 mph 52% 0.00 in 92 W/m2
17:20 69.4 °F 51.5 °F 30.19 in North 1 mph 7 mph 53% 0.00 in 68 W/m2
17:30 68.7 °F 50.9 °F 30.19 in North 2 mph 6 mph 53% 0.00 in 47 W/m2
17:40 68.2 °F 50.9 °F 30.19 in North 3 mph 9 mph 54% 0.00 in 30 W/m2
17:50 67.5 °F 50.2 °F 30.19 in North 3 mph 9 mph 54% 0.00 in 13 W/m2
18:00 66.9 °F 50.2 °F 30.19 in North 6 mph 10 mph 55% 0.00 in 7 W/m2
18:10 66.4 °F 49.7 °F 30.19 in North 3 mph 10 mph 55% 0.00 in 0 W/m2
18:20 65.8 °F 49.2 °F 30.20 in North 3 mph 7 mph 55% 0.00 in 0 W/m2
18:30 65.3 °F 49.7 °F 30.19 in North 5 mph 10 mph 57% 0.00 in 0 W/m2
18:40 64.9 °F 49.3 °F 30.20 in North 5 mph 11 mph 57% 0.00 in 0 W/m2
18:50 64.6 °F 49 °F 30.21 in North 1 mph 6 mph 57% 0.00 in 0 W/m2
19:00 64 °F 49 °F 30.21 in NNE 3 mph 7 mph 58% 0.00 in 0 W/m2
19:10 63.3 °F 48.3 °F 30.21 in North 2 mph 6 mph 58% 0.00 in 0 W/m2
19:20 63 °F 48.4 °F 30.21 in NNW 1 mph 5 mph 59% 0.00 in 0 W/m2
19:30 62.2 °F 49 °F 30.21 in NE 2 mph 4 mph 62% 0.00 in 0 W/m2
19:40 61.3 °F 48.2 °F 30.21 in NE 2 mph 4 mph 62% 0.00 in 0 W/m2
19:50 60.6 °F 47.9 °F 30.21 in North 2 mph 7 mph 63% 0.00 in 0 W/m2
20:00 60.3 °F 47.6 °F 30.22 in NE 1 mph 7 mph 63% 0.00 in 0 W/m2
20:10 59.5 °F 46.9 °F 30.22 in NNE 1 mph 6 mph 63% 0.00 in 0 W/m2
20:20 58.6 °F 47.7 °F 30.22 in Calm   5 mph 67% 0.00 in 0 W/m2
20:30 57.9 °F 47.4 °F 30.23 in Calm   2 mph 68% 0.00 in 0 W/m2
20:40 57.2 °F 46.7 °F 30.23 in Calm   3 mph 68% 0.00 in 0 W/m2
20:50 56.4 °F 46.4 °F 30.23 in South 1 mph 4 mph 69% 0.00 in 0 W/m2
21:00 55.7 °F 46.1 °F 30.24 in SSE 1 mph 3 mph 70% 0.00 in 0 W/m2
21:10 54.9 °F 46 °F 30.24 in SSE 1 mph 4 mph 72% 0.00 in 0 W/m2
21:20 54.3 °F 45.8 °F 30.24 in South 1 mph 4 mph 73% 0.00 in 0 W/m2
21:30 54 °F 45.9 °F 30.24 in SSE 2 mph 3 mph 74% 0.00 in 0 W/m2
Knjazevac, Serbia
Compliments of Weather Underground - 2 mb